sensor_id;sensor_type;location;lat;lon;timestamp;P1;durP1;ratioP1;P2;durP2;ratioP2
78406;SDS011;67692;51.074;-1.790;2023-12-29T00:02:08;7.63;;;1.45;;
78406;SDS011;67692;51.074;-1.790;2023-12-29T00:04:35;14.23;;;2.03;;
78406;SDS011;67692;51.074;-1.790;2023-12-29T00:07:02;12.32;;;2.70;;
78406;SDS011;67692;51.074;-1.790;2023-12-29T00:09:28;21.02;;;2.45;;
78406;SDS011;67692;51.074;-1.790;2023-12-29T00:11:56;15.60;;;2.30;;
78406;SDS011;67692;51.074;-1.790;2023-12-29T00:14:23;11.68;;;1.88;;
78406;SDS011;67692;51.074;-1.790;2023-12-29T00:16:51;10.68;;;1.80;;
78406;SDS011;67692;51.074;-1.790;2023-12-29T00:19:22;23.40;;;2.35;;
78406;SDS011;67692;51.074;-1.790;2023-12-29T00:21:48;12.35;;;2.30;;
78406;SDS011;67692;51.074;-1.790;2023-12-29T00:24:15;15.95;;;2.88;;
78406;SDS011;67692;51.074;-1.790;2023-12-29T00:26:42;20.15;;;2.85;;
78406;SDS011;67692;51.074;-1.790;2023-12-29T00:29:10;16.10;;;2.55;;
78406;SDS011;67692;51.074;-1.790;2023-12-29T00:31:37;19.85;;;2.25;;
78406;SDS011;67692;51.074;-1.790;2023-12-29T00:34:04;19.15;;;2.03;;
78406;SDS011;67692;51.074;-1.790;2023-12-29T00:36:30;15.93;;;2.50;;
78406;SDS011;67692;51.074;-1.790;2023-12-29T00:38:57;12.93;;;2.20;;
78406;SDS011;67692;51.074;-1.790;2023-12-29T00:41:24;15.85;;;2.55;;
78406;SDS011;67692;51.074;-1.790;2023-12-29T00:43:50;12.52;;;1.77;;
78406;SDS011;67692;51.074;-1.790;2023-12-29T00:46:18;17.40;;;2.50;;
78406;SDS011;67692;51.074;-1.790;2023-12-29T00:48:45;13.90;;;2.28;;
78406;SDS011;67692;51.074;-1.790;2023-12-29T00:51:12;13.45;;;1.65;;
78406;SDS011;67692;51.074;-1.790;2023-12-29T00:53:39;18.23;;;2.13;;
78406;SDS011;67692;51.074;-1.790;2023-12-29T00:56:09;9.52;;;1.90;;
78406;SDS011;67692;51.074;-1.790;2023-12-29T00:58:36;16.45;;;2.40;;
78406;SDS011;67692;51.074;-1.790;2023-12-29T01:01:03;17.35;;;2.55;;
78406;SDS011;67692;51.074;-1.790;2023-12-29T01:03:32;17.95;;;2.83;;
78406;SDS011;67692;51.074;-1.790;2023-12-29T01:05:59;13.25;;;2.85;;
78406;SDS011;67692;51.074;-1.790;2023-12-29T01:08:25;18.58;;;2.63;;
78406;SDS011;67692;51.074;-1.790;2023-12-29T01:10:53;17.15;;;2.10;;
78406;SDS011;67692;51.074;-1.790;2023-12-29T01:13:19;28.75;;;3.50;;
78406;SDS011;67692;51.074;-1.790;2023-12-29T01:15:46;9.70;;;2.42;;
78406;SDS011;67692;51.074;-1.790;2023-12-29T01:18:13;12.23;;;2.58;;
78406;SDS011;67692;51.074;-1.790;2023-12-29T01:20:41;19.40;;;3.08;;
78406;SDS011;67692;51.074;-1.790;2023-12-29T01:23:08;13.45;;;1.92;;
78406;SDS011;67692;51.074;-1.790;2023-12-29T01:25:34;19.13;;;2.38;;
78406;SDS011;67692;51.074;-1.790;2023-12-29T01:28:01;32.80;;;2.65;;
78406;SDS011;67692;51.074;-1.790;2023-12-29T01:30:27;15.88;;;2.85;;
78406;SDS011;67692;51.074;-1.790;2023-12-29T01:32:54;14.63;;;2.03;;
78406;SDS011;67692;51.074;-1.790;2023-12-29T01:35:21;14.77;;;2.63;;
78406;SDS011;67692;51.074;-1.790;2023-12-29T01:37:49;15.00;;;2.05;;
78406;SDS011;67692;51.074;-1.790;2023-12-29T01:40:16;20.00;;;2.83;;
78406;SDS011;67692;51.074;-1.790;2023-12-29T01:42:42;22.30;;;2.78;;
78406;SDS011;67692;51.074;-1.790;2023-12-29T01:45:10;26.02;;;2.95;;
78406;SDS011;67692;51.074;-1.790;2023-12-29T01:47:47;17.27;;;2.53;;
78406;SDS011;67692;51.074;-1.790;2023-12-29T01:50:14;13.73;;;2.08;;
78406;SDS011;67692;51.074;-1.790;2023-12-29T01:52:42;22.02;;;2.35;;
78406;SDS011;67692;51.074;-1.790;2023-12-29T01:55:12;17.52;;;3.08;;
78406;SDS011;67692;51.074;-1.790;2023-12-29T01:57:43;16.30;;;1.98;;
78406;SDS011;67692;51.074;-1.790;2023-12-29T02:00:11;17.15;;;2.40;;
78406;SDS011;67692;51.074;-1.790;2023-12-29T02:02:38;19.85;;;2.33;;
78406;SDS011;67692;51.074;-1.790;2023-12-29T02:05:05;14.75;;;2.00;;
78406;SDS011;67692;51.074;-1.790;2023-12-29T02:07:33;20.88;;;3.22;;
78406;SDS011;67692;51.074;-1.790;2023-12-29T02:09:59;17.42;;;1.95;;
78406;SDS011;67692;51.074;-1.790;2023-12-29T02:12:29;10.85;;;2.00;;
78406;SDS011;67692;51.074;-1.790;2023-12-29T02:14:56;16.25;;;2.22;;
78406;SDS011;67692;51.074;-1.790;2023-12-29T02:17:26;16.58;;;2.53;;
78406;SDS011;67692;51.074;-1.790;2023-12-29T02:19:54;11.38;;;1.45;;
78406;SDS011;67692;51.074;-1.790;2023-12-29T02:22:21;26.50;;;2.53;;
78406;SDS011;67692;51.074;-1.790;2023-12-29T02:24:49;14.35;;;2.20;;
78406;SDS011;67692;51.074;-1.790;2023-12-29T02:27:18;12.43;;;1.90;;
78406;SDS011;67692;51.074;-1.790;2023-12-29T02:29:55;14.43;;;1.90;;
78406;SDS011;67692;51.074;-1.790;2023-12-29T02:32:33;13.55;;;2.17;;
78406;SDS011;67692;51.074;-1.790;2023-12-29T02:35:02;17.95;;;2.78;;
78406;SDS011;67692;51.074;-1.790;2023-12-29T02:37:32;19.67;;;2.83;;
78406;SDS011;67692;51.074;-1.790;2023-12-29T02:40:02;22.13;;;2.33;;
78406;SDS011;67692;51.074;-1.790;2023-12-29T02:42:30;16.08;;;2.42;;
78406;SDS011;67692;51.074;-1.790;2023-12-29T02:44:57;13.00;;;2.22;;
78406;SDS011;67692;51.074;-1.790;2023-12-29T02:47:23;15.35;;;2.42;;
78406;SDS011;67692;51.074;-1.790;2023-12-29T02:49:50;17.17;;;2.72;;
78406;SDS011;67692;51.074;-1.790;2023-12-29T02:52:17;12.85;;;2.50;;
78406;SDS011;67692;51.074;-1.790;2023-12-29T02:54:43;13.18;;;2.08;;
78406;SDS011;67692;51.074;-1.790;2023-12-29T02:57:11;23.52;;;2.70;;
78406;SDS011;67692;51.074;-1.790;2023-12-29T02:59:38;17.13;;;3.00;;
78406;SDS011;67692;51.074;-1.790;2023-12-29T03:02:05;20.65;;;2.55;;
78406;SDS011;67692;51.074;-1.790;2023-12-29T03:04:31;14.88;;;2.78;;
78406;SDS011;67692;51.074;-1.790;2023-12-29T03:06:58;9.23;;;2.05;;
78406;SDS011;67692;51.074;-1.790;2023-12-29T03:09:24;17.63;;;2.38;;
78406;SDS011;67692;51.074;-1.790;2023-12-29T03:11:51;20.85;;;2.55;;
78406;SDS011;67692;51.074;-1.790;2023-12-29T03:14:19;15.77;;;2.00;;
78406;SDS011;67692;51.074;-1.790;2023-12-29T03:16:46;19.25;;;2.88;;
78406;SDS011;67692;51.074;-1.790;2023-12-29T03:19:12;13.15;;;1.58;;
78406;SDS011;67692;51.074;-1.790;2023-12-29T03:21:39;13.88;;;2.28;;
78406;SDS011;67692;51.074;-1.790;2023-12-29T03:24:06;18.88;;;2.72;;
78406;SDS011;67692;51.074;-1.790;2023-12-29T03:26:32;15.02;;;2.67;;
78406;SDS011;67692;51.074;-1.790;2023-12-29T03:28:59;22.73;;;1.90;;
78406;SDS011;67692;51.074;-1.790;2023-12-29T03:31:27;10.80;;;2.05;;
78406;SDS011;67692;51.074;-1.790;2023-12-29T03:33:54;12.43;;;2.58;;
78406;SDS011;67692;51.074;-1.790;2023-12-29T03:36:20;14.52;;;2.10;;
78406;SDS011;67692;51.074;-1.790;2023-12-29T03:38:47;15.10;;;3.30;;
78406;SDS011;67692;51.074;-1.790;2023-12-29T03:41:14;12.18;;;2.10;;
78406;SDS011;67692;51.074;-1.790;2023-12-29T03:43:40;11.65;;;1.70;;
78406;SDS011;67692;51.074;-1.790;2023-12-29T03:46:14;14.88;;;1.95;;
78406;SDS011;67692;51.074;-1.790;2023-12-29T03:48:43;16.95;;;4.53;;
78406;SDS011;67692;51.074;-1.790;2023-12-29T03:51:10;13.65;;;1.88;;
78406;SDS011;67692;51.074;-1.790;2023-12-29T03:53:37;17.17;;;2.45;;
78406;SDS011;67692;51.074;-1.790;2023-12-29T03:56:04;14.07;;;1.33;;
78406;SDS011;67692;51.074;-1.790;2023-12-29T03:58:31;19.23;;;2.58;;
78406;SDS011;67692;51.074;-1.790;2023-12-29T04:00:58;7.72;;;1.40;;
78406;SDS011;67692;51.074;-1.790;2023-12-29T04:03:24;10.32;;;1.30;;
78406;SDS011;67692;51.074;-1.790;2023-12-29T04:05:52;13.02;;;1.90;;
78406;SDS011;67692;51.074;-1.790;2023-12-29T04:08:19;13.30;;;1.98;;
78406;SDS011;67692;51.074;-1.790;2023-12-29T04:10:45;17.20;;;1.90;;
78406;SDS011;67692;51.074;-1.790;2023-12-29T04:13:12;7.65;;;1.35;;
78406;SDS011;67692;51.074;-1.790;2023-12-29T04:15:39;12.23;;;2.00;;
78406;SDS011;67692;51.074;-1.790;2023-12-29T04:18:05;13.80;;;1.95;;
78406;SDS011;67692;51.074;-1.790;2023-12-29T04:20:32;12.75;;;1.35;;
78406;SDS011;67692;51.074;-1.790;2023-12-29T04:23:00;8.68;;;1.42;;
78406;SDS011;67692;51.074;-1.790;2023-12-29T04:25:27;14.18;;;2.15;;
78406;SDS011;67692;51.074;-1.790;2023-12-29T04:27:53;13.95;;;1.60;;
78406;SDS011;67692;51.074;-1.790;2023-12-29T04:30:20;7.97;;;1.50;;
78406;SDS011;67692;51.074;-1.790;2023-12-29T04:32:47;8.63;;;1.10;;
78406;SDS011;67692;51.074;-1.790;2023-12-29T04:35:13;11.18;;;1.30;;
78406;SDS011;67692;51.074;-1.790;2023-12-29T04:37:40;9.52;;;1.65;;
78406;SDS011;67692;51.074;-1.790;2023-12-29T04:40:09;7.68;;;1.17;;
78406;SDS011;67692;51.074;-1.790;2023-12-29T04:42:36;8.90;;;1.13;;
78406;SDS011;67692;51.074;-1.790;2023-12-29T04:45:03;7.57;;;0.93;;
78406;SDS011;67692;51.074;-1.790;2023-12-29T04:47:30;7.90;;;1.40;;
78406;SDS011;67692;51.074;-1.790;2023-12-29T04:49:57;8.60;;;1.38;;
78406;SDS011;67692;51.074;-1.790;2023-12-29T04:52:23;8.52;;;1.75;;
78406;SDS011;67692;51.074;-1.790;2023-12-29T04:54:50;5.22;;;0.90;;
78406;SDS011;67692;51.074;-1.790;2023-12-29T04:57:18;7.25;;;0.95;;
78406;SDS011;67692;51.074;-1.790;2023-12-29T04:59:45;6.35;;;1.52;;
78406;SDS011;67692;51.074;-1.790;2023-12-29T05:02:12;8.95;;;1.30;;
78406;SDS011;67692;51.074;-1.790;2023-12-29T05:04:39;10.32;;;1.50;;
78406;SDS011;67692;51.074;-1.790;2023-12-29T05:07:07;6.10;;;0.98;;
78406;SDS011;67692;51.074;-1.790;2023-12-29T05:09:35;6.22;;;0.90;;
78406;SDS011;67692;51.074;-1.790;2023-12-29T05:12:02;6.00;;;1.17;;
78406;SDS011;67692;51.074;-1.790;2023-12-29T05:14:30;5.55;;;1.52;;
78406;SDS011;67692;51.074;-1.790;2023-12-29T05:16:56;7.57;;;1.10;;
78406;SDS011;67692;51.074;-1.790;2023-12-29T05:19:23;8.13;;;1.35;;
78406;SDS011;67692;51.074;-1.790;2023-12-29T05:21:50;7.45;;;1.00;;
78406;SDS011;67692;51.074;-1.790;2023-12-29T05:24:19;8.10;;;1.15;;
78406;SDS011;67692;51.074;-1.790;2023-12-29T05:26:45;10.93;;;1.92;;
78406;SDS011;67692;51.074;-1.790;2023-12-29T05:29:12;12.13;;;1.10;;
78406;SDS011;67692;51.074;-1.790;2023-12-29T05:31:40;5.80;;;0.60;;
78406;SDS011;67692;51.074;-1.790;2023-12-29T05:34:06;11.68;;;0.98;;
78406;SDS011;67692;51.074;-1.790;2023-12-29T05:36:34;6.25;;;1.08;;
78406;SDS011;67692;51.074;-1.790;2023-12-29T05:39:01;6.57;;;1.00;;
78406;SDS011;67692;51.074;-1.790;2023-12-29T05:41:28;9.57;;;0.88;;
78406;SDS011;67692;51.074;-1.790;2023-12-29T05:43:55;4.47;;;1.17;;
78406;SDS011;67692;51.074;-1.790;2023-12-29T05:46:23;5.28;;;0.73;;
78406;SDS011;67692;51.074;-1.790;2023-12-29T05:48:51;10.25;;;1.23;;
78406;SDS011;67692;51.074;-1.790;2023-12-29T05:51:18;7.28;;;1.05;;
78406;SDS011;67692;51.074;-1.790;2023-12-29T05:53:45;7.53;;;0.90;;
78406;SDS011;67692;51.074;-1.790;2023-12-29T05:56:12;7.78;;;0.70;;
78406;SDS011;67692;51.074;-1.790;2023-12-29T05:58:40;5.30;;;0.80;;
78406;SDS011;67692;51.074;-1.790;2023-12-29T06:01:06;6.47;;;0.80;;
78406;SDS011;67692;51.074;-1.790;2023-12-29T06:03:33;5.15;;;1.00;;
78406;SDS011;67692;51.074;-1.790;2023-12-29T06:06:01;5.22;;;0.95;;
78406;SDS011;67692;51.074;-1.790;2023-12-29T06:08:28;4.55;;;0.80;;
78406;SDS011;67692;51.074;-1.790;2023-12-29T06:10:55;6.22;;;0.85;;
78406;SDS011;67692;51.074;-1.790;2023-12-29T06:13:21;8.00;;;2.03;;
78406;SDS011;67692;51.074;-1.790;2023-12-29T06:15:48;4.70;;;0.63;;
78406;SDS011;67692;51.074;-1.790;2023-12-29T06:18:15;5.28;;;0.70;;
78406;SDS011;67692;51.074;-1.790;2023-12-29T06:20:41;9.25;;;0.82;;
78406;SDS011;67692;51.074;-1.790;2023-12-29T06:23:09;8.25;;;0.90;;
78406;SDS011;67692;51.074;-1.790;2023-12-29T06:25:36;5.28;;;0.95;;
78406;SDS011;67692;51.074;-1.790;2023-12-29T06:28:04;4.88;;;0.73;;
78406;SDS011;67692;51.074;-1.790;2023-12-29T06:30:31;12.45;;;3.25;;
78406;SDS011;67692;51.074;-1.790;2023-12-29T06:32:58;8.07;;;1.08;;
78406;SDS011;67692;51.074;-1.790;2023-12-29T06:35:24;2.40;;;0.77;;
78406;SDS011;67692;51.074;-1.790;2023-12-29T06:37:51;9.75;;;0.95;;
78406;SDS011;67692;51.074;-1.790;2023-12-29T06:40:19;6.35;;;1.02;;
78406;SDS011;67692;51.074;-1.790;2023-12-29T06:42:46;3.97;;;0.75;;
78406;SDS011;67692;51.074;-1.790;2023-12-29T06:45:13;4.85;;;1.02;;
78406;SDS011;67692;51.074;-1.790;2023-12-29T06:47:39;4.47;;;0.68;;
78406;SDS011;67692;51.074;-1.790;2023-12-29T06:50:06;6.97;;;1.33;;
78406;SDS011;67692;51.074;-1.790;2023-12-29T06:52:37;7.00;;;1.13;;
78406;SDS011;67692;51.074;-1.790;2023-12-29T06:55:04;8.18;;;0.95;;
78406;SDS011;67692;51.074;-1.790;2023-12-29T06:57:33;6.72;;;1.13;;
78406;SDS011;67692;51.074;-1.790;2023-12-29T07:00:00;7.07;;;0.75;;
78406;SDS011;67692;51.074;-1.790;2023-12-29T07:02:26;8.77;;;1.27;;
78406;SDS011;67692;51.074;-1.790;2023-12-29T07:04:53;3.28;;;0.73;;
78406;SDS011;67692;51.074;-1.790;2023-12-29T07:07:19;8.85;;;1.10;;
78406;SDS011;67692;51.074;-1.790;2023-12-29T07:09:46;8.63;;;1.17;;
78406;SDS011;67692;51.074;-1.790;2023-12-29T07:12:13;3.75;;;1.13;;
78406;SDS011;67692;51.074;-1.790;2023-12-29T07:14:42;4.07;;;1.10;;
78406;SDS011;67692;51.074;-1.790;2023-12-29T07:17:08;4.38;;;1.05;;
78406;SDS011;67692;51.074;-1.790;2023-12-29T07:19:35;6.38;;;0.90;;
78406;SDS011;67692;51.074;-1.790;2023-12-29T07:22:03;7.50;;;1.20;;
78406;SDS011;67692;51.074;-1.790;2023-12-29T07:24:31;7.03;;;2.33;;
78406;SDS011;67692;51.074;-1.790;2023-12-29T07:26:58;7.97;;;1.17;;
78406;SDS011;67692;51.074;-1.790;2023-12-29T07:29:25;8.20;;;0.90;;
78406;SDS011;67692;51.074;-1.790;2023-12-29T07:31:53;6.75;;;1.10;;
78406;SDS011;67692;51.074;-1.790;2023-12-29T07:34:20;4.50;;;1.15;;
78406;SDS011;67692;51.074;-1.790;2023-12-29T07:36:46;9.23;;;1.58;;
78406;SDS011;67692;51.074;-1.790;2023-12-29T07:39:13;4.63;;;0.85;;
78406;SDS011;67692;51.074;-1.790;2023-12-29T07:41:40;5.30;;;1.25;;
78406;SDS011;67692;51.074;-1.790;2023-12-29T07:44:07;6.65;;;1.40;;
78406;SDS011;67692;51.074;-1.790;2023-12-29T07:46:33;3.88;;;0.60;;
78406;SDS011;67692;51.074;-1.790;2023-12-29T07:49:02;7.70;;;1.42;;
78406;SDS011;67692;51.074;-1.790;2023-12-29T07:51:29;9.57;;;1.55;;
78406;SDS011;67692;51.074;-1.790;2023-12-29T07:53:56;3.92;;;0.93;;
78406;SDS011;67692;51.074;-1.790;2023-12-29T07:56:23;10.52;;;1.30;;
78406;SDS011;67692;51.074;-1.790;2023-12-29T07:58:49;11.70;;;1.30;;
78406;SDS011;67692;51.074;-1.790;2023-12-29T08:01:17;4.68;;;1.10;;
78406;SDS011;67692;51.074;-1.790;2023-12-29T08:03:43;4.05;;;1.00;;
78406;SDS011;67692;51.074;-1.790;2023-12-29T08:06:12;3.58;;;1.00;;
78406;SDS011;67692;51.074;-1.790;2023-12-29T08:08:38;11.30;;;1.52;;
78406;SDS011;67692;51.074;-1.790;2023-12-29T08:11:05;3.30;;;0.93;;
78406;SDS011;67692;51.074;-1.790;2023-12-29T08:13:32;7.35;;;0.85;;
78406;SDS011;67692;51.074;-1.790;2023-12-29T08:15:58;7.25;;;1.30;;
78406;SDS011;67692;51.074;-1.790;2023-12-29T08:18:25;4.47;;;1.08;;
78406;SDS011;67692;51.074;-1.790;2023-12-29T08:20:52;9.02;;;1.83;;
78406;SDS011;67692;51.074;-1.790;2023-12-29T08:23:20;8.43;;;1.73;;
78406;SDS011;67692;51.074;-1.790;2023-12-29T08:25:46;7.28;;;1.95;;
78406;SDS011;67692;51.074;-1.790;2023-12-29T08:28:13;9.05;;;1.13;;
78406;SDS011;67692;51.074;-1.790;2023-12-29T08:30:39;14.35;;;1.10;;
78406;SDS011;67692;51.074;-1.790;2023-12-29T08:33:06;9.45;;;1.27;;
78406;SDS011;67692;51.074;-1.790;2023-12-29T08:35:33;6.85;;;1.10;;
78406;SDS011;67692;51.074;-1.790;2023-12-29T08:37:59;7.78;;;1.10;;
78406;SDS011;67692;51.074;-1.790;2023-12-29T08:40:27;8.73;;;1.10;;
78406;SDS011;67692;51.074;-1.790;2023-12-29T08:42:54;6.38;;;1.40;;
78406;SDS011;67692;51.074;-1.790;2023-12-29T08:45:21;10.15;;;1.75;;
78406;SDS011;67692;51.074;-1.790;2023-12-29T08:47:47;4.82;;;1.20;;
78406;SDS011;67692;51.074;-1.790;2023-12-29T08:50:14;5.60;;;1.08;;
78406;SDS011;67692;51.074;-1.790;2023-12-29T08:52:42;11.10;;;1.20;;
78406;SDS011;67692;51.074;-1.790;2023-12-29T08:55:08;6.38;;;1.13;;
78406;SDS011;67692;51.074;-1.790;2023-12-29T08:57:37;11.02;;;1.67;;
78406;SDS011;67692;51.074;-1.790;2023-12-29T09:00:05;9.07;;;1.55;;
78406;SDS011;67692;51.074;-1.790;2023-12-29T09:02:32;9.20;;;1.13;;
78406;SDS011;67692;51.074;-1.790;2023-12-29T09:04:58;7.72;;;1.20;;
78406;SDS011;67692;51.074;-1.790;2023-12-29T09:07:25;9.35;;;1.90;;
78406;SDS011;67692;51.074;-1.790;2023-12-29T09:09:53;6.47;;;1.20;;
78406;SDS011;67692;51.074;-1.790;2023-12-29T09:12:19;12.07;;;1.20;;
78406;SDS011;67692;51.074;-1.790;2023-12-29T09:14:47;13.48;;;1.65;;
78406;SDS011;67692;51.074;-1.790;2023-12-29T09:17:14;9.52;;;1.23;;
78406;SDS011;67692;51.074;-1.790;2023-12-29T09:19:41;13.88;;;1.75;;
78406;SDS011;67692;51.074;-1.790;2023-12-29T09:22:07;8.10;;;1.58;;
78406;SDS011;67692;51.074;-1.790;2023-12-29T09:24:34;9.25;;;1.63;;
78406;SDS011;67692;51.074;-1.790;2023-12-29T09:27:00;6.55;;;1.13;;
78406;SDS011;67692;51.074;-1.790;2023-12-29T09:29:28;8.85;;;1.33;;
78406;SDS011;67692;51.074;-1.790;2023-12-29T09:31:56;9.05;;;1.38;;
78406;SDS011;67692;51.074;-1.790;2023-12-29T09:34:23;11.68;;;1.33;;
78406;SDS011;67692;51.074;-1.790;2023-12-29T09:36:49;10.70;;;1.80;;
78406;SDS011;67692;51.074;-1.790;2023-12-29T09:39:16;10.63;;;1.77;;
78406;SDS011;67692;51.074;-1.790;2023-12-29T09:41:43;9.10;;;1.08;;
78406;SDS011;67692;51.074;-1.790;2023-12-29T09:44:13;8.52;;;1.48;;
78406;SDS011;67692;51.074;-1.790;2023-12-29T09:46:41;8.20;;;1.45;;
78406;SDS011;67692;51.074;-1.790;2023-12-29T09:49:09;12.40;;;1.35;;
78406;SDS011;67692;51.074;-1.790;2023-12-29T09:51:38;11.27;;;1.85;;
78406;SDS011;67692;51.074;-1.790;2023-12-29T09:54:06;13.50;;;1.80;;
78406;SDS011;67692;51.074;-1.790;2023-12-29T09:56:35;18.10;;;2.17;;
78406;SDS011;67692;51.074;-1.790;2023-12-29T09:59:02;13.55;;;1.67;;
78406;SDS011;67692;51.074;-1.790;2023-12-29T10:01:30;8.43;;;1.45;;
78406;SDS011;67692;51.074;-1.790;2023-12-29T10:03:58;12.63;;;1.98;;
78406;SDS011;67692;51.074;-1.790;2023-12-29T10:06:26;14.25;;;1.75;;
78406;SDS011;67692;51.074;-1.790;2023-12-29T10:08:57;11.30;;;1.48;;
78406;SDS011;67692;51.074;-1.790;2023-12-29T10:11:25;14.48;;;1.48;;
78406;SDS011;67692;51.074;-1.790;2023-12-29T10:13:53;12.88;;;2.33;;
78406;SDS011;67692;51.074;-1.790;2023-12-29T10:16:24;7.78;;;2.03;;
78406;SDS011;67692;51.074;-1.790;2023-12-29T10:18:57;7.40;;;0.95;;
78406;SDS011;67692;51.074;-1.790;2023-12-29T10:21:33;9.95;;;1.00;;
78406;SDS011;67692;51.074;-1.790;2023-12-29T10:24:08;4.30;;;1.00;;
78406;SDS011;67692;51.074;-1.790;2023-12-29T10:26:39;8.75;;;1.08;;
78406;SDS011;67692;51.074;-1.790;2023-12-29T10:29:06;3.58;;;1.13;;
78406;SDS011;67692;51.074;-1.790;2023-12-29T10:31:33;3.58;;;1.17;;
78406;SDS011;67692;51.074;-1.790;2023-12-29T10:36:49;3.38;;;0.70;;
78406;SDS011;67692;51.074;-1.790;2023-12-29T10:39:16;4.53;;;0.93;;
78406;SDS011;67692;51.074;-1.790;2023-12-29T10:41:42;6.03;;;1.67;;
78406;SDS011;67692;51.074;-1.790;2023-12-29T10:44:09;6.07;;;0.90;;
78406;SDS011;67692;51.074;-1.790;2023-12-29T10:46:36;2.33;;;0.50;;
78406;SDS011;67692;51.074;-1.790;2023-12-29T10:49:06;3.20;;;0.70;;
78406;SDS011;67692;51.074;-1.790;2023-12-29T10:51:34;5.63;;;0.68;;
78406;SDS011;67692;51.074;-1.790;2023-12-29T10:54:03;3.88;;;0.82;;
78406;SDS011;67692;51.074;-1.790;2023-12-29T10:56:30;4.80;;;1.30;;
78406;SDS011;67692;51.074;-1.790;2023-12-29T10:58:57;4.40;;;0.90;;
78406;SDS011;67692;51.074;-1.790;2023-12-29T11:01:25;5.68;;;1.08;;
78406;SDS011;67692;51.074;-1.790;2023-12-29T11:03:57;2.20;;;0.77;;
78406;SDS011;67692;51.074;-1.790;2023-12-29T11:06:25;6.55;;;1.45;;
78406;SDS011;67692;51.074;-1.790;2023-12-29T11:08:53;2.95;;;0.60;;
78406;SDS011;67692;51.074;-1.790;2023-12-29T11:11:21;4.03;;;0.80;;
78406;SDS011;67692;51.074;-1.790;2023-12-29T11:13:48;5.15;;;1.30;;
78406;SDS011;67692;51.074;-1.790;2023-12-29T11:16:15;3.58;;;0.70;;
78406;SDS011;67692;51.074;-1.790;2023-12-29T11:18:46;1.35;;;0.43;;
78406;SDS011;67692;51.074;-1.790;2023-12-29T11:21:16;0.98;;;0.45;;
78406;SDS011;67692;51.074;-1.790;2023-12-29T11:23:43;1.77;;;0.63;;
78406;SDS011;67692;51.074;-1.790;2023-12-29T11:26:09;3.60;;;0.80;;
78406;SDS011;67692;51.074;-1.790;2023-12-29T11:28:38;2.80;;;0.80;;
78406;SDS011;67692;51.074;-1.790;2023-12-29T11:31:05;2.75;;;0.80;;
78406;SDS011;67692;51.074;-1.790;2023-12-29T11:33:34;1.63;;;0.40;;
78406;SDS011;67692;51.074;-1.790;2023-12-29T11:36:07;2.47;;;0.68;;
78406;SDS011;67692;51.074;-1.790;2023-12-29T11:38:43;4.72;;;0.65;;
78406;SDS011;67692;51.074;-1.790;2023-12-29T11:41:17;1.98;;;0.70;;
78406;SDS011;67692;51.074;-1.790;2023-12-29T11:43:57;3.90;;;0.73;;
78406;SDS011;67692;51.074;-1.790;2023-12-29T11:46:32;1.85;;;0.40;;
78406;SDS011;67692;51.074;-1.790;2023-12-29T11:48:58;1.88;;;0.57;;
78406;SDS011;67692;51.074;-1.790;2023-12-29T11:51:30;4.07;;;0.55;;
78406;SDS011;67692;51.074;-1.790;2023-12-29T11:53:57;2.92;;;0.75;;
78406;SDS011;67692;51.074;-1.790;2023-12-29T11:56:24;4.72;;;0.50;;
78406;SDS011;67692;51.074;-1.790;2023-12-29T11:58:58;3.85;;;0.63;;
78406;SDS011;67692;51.074;-1.790;2023-12-29T12:01:38;2.53;;;0.50;;
78406;SDS011;67692;51.074;-1.790;2023-12-29T12:04:15;1.95;;;0.60;;
78406;SDS011;67692;51.074;-1.790;2023-12-29T12:07:01;2.38;;;0.85;;
78406;SDS011;67692;51.074;-1.790;2023-12-29T12:09:27;2.67;;;0.55;;
78406;SDS011;67692;51.074;-1.790;2023-12-29T12:11:54;2.90;;;0.55;;
78406;SDS011;67692;51.074;-1.790;2023-12-29T12:17:31;6.20;;;0.90;;
78406;SDS011;67692;51.074;-1.790;2023-12-29T12:20:00;5.75;;;0.80;;
78406;SDS011;67692;51.074;-1.790;2023-12-29T12:22:29;5.28;;;0.60;;
78406;SDS011;67692;51.074;-1.790;2023-12-29T12:24:57;3.55;;;0.80;;
78406;SDS011;67692;51.074;-1.790;2023-12-29T12:27:25;8.50;;;1.17;;
78406;SDS011;67692;51.074;-1.790;2023-12-29T12:29:57;3.08;;;0.68;;
78406;SDS011;67692;51.074;-1.790;2023-12-29T12:32:25;5.25;;;0.90;;
78406;SDS011;67692;51.074;-1.790;2023-12-29T12:34:52;7.80;;;1.15;;
78406;SDS011;67692;51.074;-1.790;2023-12-29T12:37:19;2.58;;;0.55;;
78406;SDS011;67692;51.074;-1.790;2023-12-29T12:39:47;7.38;;;1.00;;
78406;SDS011;67692;51.074;-1.790;2023-12-29T12:42:14;4.55;;;0.80;;
78406;SDS011;67692;51.074;-1.790;2023-12-29T12:44:42;3.05;;;0.68;;
78406;SDS011;67692;51.074;-1.790;2023-12-29T12:47:25;5.85;;;0.90;;
78406;SDS011;67692;51.074;-1.790;2023-12-29T12:49:53;5.15;;;0.73;;
78406;SDS011;67692;51.074;-1.790;2023-12-29T12:52:19;5.38;;;0.68;;
78406;SDS011;67692;51.074;-1.790;2023-12-29T12:54:46;2.38;;;0.70;;
78406;SDS011;67692;51.074;-1.790;2023-12-29T12:57:17;4.95;;;0.57;;
78406;SDS011;67692;51.074;-1.790;2023-12-29T12:59:45;4.57;;;0.75;;
78406;SDS011;67692;51.074;-1.790;2023-12-29T13:02:12;3.63;;;0.93;;
78406;SDS011;67692;51.074;-1.790;2023-12-29T13:04:40;5.85;;;0.82;;
78406;SDS011;67692;51.074;-1.790;2023-12-29T13:07:08;4.78;;;0.80;;
78406;SDS011;67692;51.074;-1.790;2023-12-29T13:09:35;2.00;;;0.77;;
78406;SDS011;67692;51.074;-1.790;2023-12-29T13:12:09;3.28;;;0.65;;
78406;SDS011;67692;51.074;-1.790;2023-12-29T13:14:37;7.05;;;0.70;;
78406;SDS011;67692;51.074;-1.790;2023-12-29T13:17:07;3.92;;;0.80;;
78406;SDS011;67692;51.074;-1.790;2023-12-29T13:19:35;7.07;;;0.90;;
78406;SDS011;67692;51.074;-1.790;2023-12-29T13:22:05;3.13;;;0.73;;
78406;SDS011;67692;51.074;-1.790;2023-12-29T13:24:33;4.88;;;0.80;;
78406;SDS011;67692;51.074;-1.790;2023-12-29T13:27:02;8.68;;;0.88;;
78406;SDS011;67692;51.074;-1.790;2023-12-29T13:29:31;3.25;;;0.77;;
78406;SDS011;67692;51.074;-1.790;2023-12-29T13:32:00;3.47;;;0.60;;
78406;SDS011;67692;51.074;-1.790;2023-12-29T13:34:32;3.88;;;0.82;;
78406;SDS011;67692;51.074;-1.790;2023-12-29T13:37:05;4.60;;;0.63;;
78406;SDS011;67692;51.074;-1.790;2023-12-29T13:39:44;2.40;;;0.28;;
78406;SDS011;67692;51.074;-1.790;2023-12-29T13:42:17;1.92;;;0.40;;
78406;SDS011;67692;51.074;-1.790;2023-12-29T13:44:46;9.52;;;1.13;;
78406;SDS011;67692;51.074;-1.790;2023-12-29T13:47:13;2.55;;;0.50;;
78406;SDS011;67692;51.074;-1.790;2023-12-29T13:49:42;6.25;;;1.52;;
78406;SDS011;67692;51.074;-1.790;2023-12-29T13:52:10;3.45;;;0.73;;
78406;SDS011;67692;51.074;-1.790;2023-12-29T13:54:40;3.45;;;0.50;;
78406;SDS011;67692;51.074;-1.790;2023-12-29T13:57:07;0.68;;;0.20;;
78406;SDS011;67692;51.074;-1.790;2023-12-29T13:59:34;2.20;;;0.68;;
78406;SDS011;67692;51.074;-1.790;2023-12-29T14:02:02;3.58;;;1.33;;
78406;SDS011;67692;51.074;-1.790;2023-12-29T14:04:45;3.78;;;1.35;;
78406;SDS011;67692;51.074;-1.790;2023-12-29T14:07:13;2.13;;;0.43;;
78406;SDS011;67692;51.074;-1.790;2023-12-29T14:09:40;1.85;;;0.40;;
78406;SDS011;67692;51.074;-1.790;2023-12-29T14:12:07;1.85;;;0.43;;
78406;SDS011;67692;51.074;-1.790;2023-12-29T14:14:34;2.15;;;0.40;;
78406;SDS011;67692;51.074;-1.790;2023-12-29T14:17:00;1.95;;;0.68;;
78406;SDS011;67692;51.074;-1.790;2023-12-29T14:19:33;4.85;;;1.50;;
78406;SDS011;67692;51.074;-1.790;2023-12-29T14:22:01;1.92;;;0.50;;
78406;SDS011;67692;51.074;-1.790;2023-12-29T14:24:29;5.65;;;0.60;;
78406;SDS011;67692;51.074;-1.790;2023-12-29T14:26:56;3.28;;;0.55;;
78406;SDS011;67692;51.074;-1.790;2023-12-29T14:29:24;3.45;;;0.47;;
78406;SDS011;67692;51.074;-1.790;2023-12-29T14:31:51;2.90;;;0.60;;
78406;SDS011;67692;51.074;-1.790;2023-12-29T14:34:18;5.20;;;1.00;;
78406;SDS011;67692;51.074;-1.790;2023-12-29T14:36:45;2.17;;;0.50;;
78406;SDS011;67692;51.074;-1.790;2023-12-29T14:39:12;5.00;;;0.77;;
78406;SDS011;67692;51.074;-1.790;2023-12-29T14:41:41;6.25;;;1.17;;